sensor_id;sensor_type;location;lat;lon;timestamp;pressure;altitude;pressure_sealevel;temperature;humidity
79028;BME280;68427;48.476;19.102;2023-05-29T00:01:34;97572.41;;;10.25;77.85
79028;BME280;68427;48.476;19.102;2023-05-29T00:04:01;97568.38;;;10.22;78.40
79028;BME280;68427;48.476;19.102;2023-05-29T00:06:27;97571.13;;;10.14;78.92
79028;BME280;68427;48.476;19.102;2023-05-29T00:08:54;97569.72;;;10.11;78.98
79028;BME280;68427;48.476;19.102;2023-05-29T00:11:20;97572.94;;;10.13;78.91
79028;BME280;68427;48.476;19.102;2023-05-29T00:13:45;97574.56;;;10.14;78.12
79028;BME280;68427;48.476;19.102;2023-05-29T00:16:11;97571.31;;;10.12;78.32
79028;BME280;68427;48.476;19.102;2023-05-29T00:18:38;97562.47;;;10.13;78.22
79028;BME280;68427;48.476;19.102;2023-05-29T00:21:10;97568.69;;;10.12;78.13
79028;BME280;68427;48.476;19.102;2023-05-29T00:23:36;97568.06;;;10.10;78.96
79028;BME280;68427;48.476;19.102;2023-05-29T00:26:03;97560.38;;;10.02;79.09
79028;BME280;68427;48.476;19.102;2023-05-29T00:28:29;97568.78;;;9.98;79.00
79028;BME280;68427;48.476;19.102;2023-05-29T00:30:54;97570.72;;;9.89;79.06
79028;BME280;68427;48.476;19.102;2023-05-29T00:33:20;97572.06;;;9.78;79.57
79028;BME280;68427;48.476;19.102;2023-05-29T00:35:46;97567.38;;;9.73;79.08
79028;BME280;68427;48.476;19.102;2023-05-29T00:38:11;97561.91;;;9.68;80.16
79028;BME280;68427;48.476;19.102;2023-05-29T00:40:39;97556.69;;;9.68;80.15
79028;BME280;68427;48.476;19.102;2023-05-29T00:43:06;97561.66;;;9.63;80.39
79028;BME280;68427;48.476;19.102;2023-05-29T00:45:32;97556.19;;;9.58;80.67
79028;BME280;68427;48.476;19.102;2023-05-29T00:48:01;97561.22;;;9.60;80.03
79028;BME280;68427;48.476;19.102;2023-05-29T00:50:27;97570.44;;;9.56;80.16
79028;BME280;68427;48.476;19.102;2023-05-29T00:52:53;97568.41;;;9.58;80.32
79028;BME280;68427;48.476;19.102;2023-05-29T00:55:19;97562.22;;;9.59;79.77
79028;BME280;68427;48.476;19.102;2023-05-29T00:57:44;97569.44;;;9.57;80.30
79028;BME280;68427;48.476;19.102;2023-05-29T01:00:14;97559.72;;;9.50;80.38
79028;BME280;68427;48.476;19.102;2023-05-29T01:02:39;97564.59;;;9.54;80.46
79028;BME280;68427;48.476;19.102;2023-05-29T01:05:05;97564.59;;;9.54;79.73
79028;BME280;68427;48.476;19.102;2023-05-29T01:07:32;97563.88;;;9.45;80.43
79028;BME280;68427;48.476;19.102;2023-05-29T01:09:58;97562.66;;;9.41;80.17
79028;BME280;68427;48.476;19.102;2023-05-29T01:12:31;97563.19;;;9.36;80.78
79028;BME280;68427;48.476;19.102;2023-05-29T01:15:16;97556.34;;;9.35;80.75
79028;BME280;68427;48.476;19.102;2023-05-29T01:17:46;97560.69;;;9.28;81.11
79028;BME280;68427;48.476;19.102;2023-05-29T01:20:35;97567.97;;;9.33;80.45
79028;BME280;68427;48.476;19.102;2023-05-29T01:23:33;97569.16;;;9.30;80.93
79028;BME280;68427;48.476;19.102;2023-05-29T01:26:11;97573.31;;;9.24;80.71
79028;BME280;68427;48.476;19.102;2023-05-29T01:28:47;97557.38;;;9.19;81.24
79028;BME280;68427;48.476;19.102;2023-05-29T01:31:15;97568.00;;;9.18;80.90
79028;BME280;68427;48.476;19.102;2023-05-29T01:33:46;97556.69;;;9.11;81.39
79028;BME280;68427;48.476;19.102;2023-05-29T01:36:16;97557.28;;;9.13;81.04
79028;BME280;68427;48.476;19.102;2023-05-29T01:38:42;97558.84;;;9.07;81.06
79028;BME280;68427;48.476;19.102;2023-05-29T01:41:08;97555.16;;;9.01;81.13
79028;BME280;68427;48.476;19.102;2023-05-29T01:43:34;97558.69;;;8.94;81.71
79028;BME280;68427;48.476;19.102;2023-05-29T01:46:01;97561.69;;;8.91;81.56
79028;BME280;68427;48.476;19.102;2023-05-29T01:48:27;97559.25;;;8.89;81.41
79028;BME280;68427;48.476;19.102;2023-05-29T01:50:54;97556.53;;;8.82;82.12
79028;BME280;68427;48.476;19.102;2023-05-29T01:53:20;97556.91;;;8.79;82.38
79028;BME280;68427;48.476;19.102;2023-05-29T01:55:48;97549.88;;;8.80;82.40
79028;BME280;68427;48.476;19.102;2023-05-29T01:58:15;97555.66;;;8.75;82.42
79028;BME280;68427;48.476;19.102;2023-05-29T02:00:41;97553.22;;;8.74;82.52
79028;BME280;68427;48.476;19.102;2023-05-29T02:03:08;97543.59;;;8.74;82.59
79028;BME280;68427;48.476;19.102;2023-05-29T02:05:34;97551.41;;;8.74;82.16
79028;BME280;68427;48.476;19.102;2023-05-29T02:08:00;97548.97;;;8.73;82.38
79028;BME280;68427;48.476;19.102;2023-05-29T02:10:25;97553.59;;;8.71;82.09
79028;BME280;68427;48.476;19.102;2023-05-29T02:12:51;97547.28;;;8.65;82.46
79028;BME280;68427;48.476;19.102;2023-05-29T02:15:17;97544.06;;;8.63;81.79
79028;BME280;68427;48.476;19.102;2023-05-29T02:17:43;97545.13;;;8.54;82.32
79028;BME280;68427;48.476;19.102;2023-05-29T02:20:11;97541.97;;;8.58;81.63
79028;BME280;68427;48.476;19.102;2023-05-29T02:22:37;97543.78;;;8.58;81.90
79028;BME280;68427;48.476;19.102;2023-05-29T02:25:03;97542.16;;;8.57;82.11
79028;BME280;68427;48.476;19.102;2023-05-29T02:27:28;97541.88;;;8.52;82.01
79028;BME280;68427;48.476;19.102;2023-05-29T02:29:54;97537.84;;;8.49;82.51
79028;BME280;68427;48.476;19.102;2023-05-29T02:32:20;97544.22;;;8.47;83.16
79028;BME280;68427;48.476;19.102;2023-05-29T02:34:45;97543.59;;;8.44;82.70
79028;BME280;68427;48.476;19.102;2023-05-29T02:37:13;97537.13;;;8.40;82.66
79028;BME280;68427;48.476;19.102;2023-05-29T02:39:38;97541.34;;;8.41;82.64
79028;BME280;68427;48.476;19.102;2023-05-29T02:42:04;97539.75;;;8.40;82.48
79028;BME280;68427;48.476;19.102;2023-05-29T02:44:31;97539.06;;;8.38;82.70
79028;BME280;68427;48.476;19.102;2023-05-29T02:46:57;97539.44;;;8.35;82.53
79028;BME280;68427;48.476;19.102;2023-05-29T02:49:22;97532.94;;;8.31;82.44
79028;BME280;68427;48.476;19.102;2023-05-29T02:51:48;97534.75;;;8.31;82.02
79028;BME280;68427;48.476;19.102;2023-05-29T02:54:15;97537.34;;;8.31;82.56
79028;BME280;68427;48.476;19.102;2023-05-29T02:56:41;97534.47;;;8.26;82.69
79028;BME280;68427;48.476;19.102;2023-05-29T02:59:06;97532.84;;;8.25;83.15
79028;BME280;68427;48.476;19.102;2023-05-29T03:01:32;97537.09;;;8.26;82.73
79028;BME280;68427;48.476;19.102;2023-05-29T03:03:58;97528.25;;;8.27;82.90
79028;BME280;68427;48.476;19.102;2023-05-29T03:06:23;97531.06;;;8.25;83.12
79028;BME280;68427;48.476;19.102;2023-05-29T03:08:49;97531.50;;;8.29;83.70
79028;BME280;68427;48.476;19.102;2023-05-29T03:11:17;97532.41;;;8.36;82.64
79028;BME280;68427;48.476;19.102;2023-05-29T03:13:43;97537.78;;;8.34;83.03
79028;BME280;68427;48.476;19.102;2023-05-29T03:16:11;97540.59;;;8.33;82.67
79028;BME280;68427;48.476;19.102;2023-05-29T03:18:37;97546.78;;;8.32;82.58
79028;BME280;68427;48.476;19.102;2023-05-29T03:21:03;97544.03;;;8.33;82.90
79028;BME280;68427;48.476;19.102;2023-05-29T03:23:29;97541.41;;;8.33;82.54
79028;BME280;68427;48.476;19.102;2023-05-29T03:25:54;97537.78;;;8.34;82.65
79028;BME280;68427;48.476;19.102;2023-05-29T03:28:22;97545.72;;;8.26;83.16
79028;BME280;68427;48.476;19.102;2023-05-29T03:30:47;97549.78;;;8.29;82.90
79028;BME280;68427;48.476;19.102;2023-05-29T03:33:13;97546.00;;;8.31;82.87
79028;BME280;68427;48.476;19.102;2023-05-29T03:35:39;97550.78;;;8.28;83.01
79028;BME280;68427;48.476;19.102;2023-05-29T03:38:04;97552.00;;;8.32;83.12
79028;BME280;68427;48.476;19.102;2023-05-29T03:40:30;97555.41;;;8.40;83.17
79028;BME280;68427;48.476;19.102;2023-05-29T03:42:56;97554.09;;;8.36;82.95
79028;BME280;68427;48.476;19.102;2023-05-29T03:45:23;97558.44;;;8.44;82.67
79028;BME280;68427;48.476;19.102;2023-05-29T03:47:48;97558.72;;;8.49;82.72
79028;BME280;68427;48.476;19.102;2023-05-29T03:50:14;97555.31;;;8.49;83.11
79028;BME280;68427;48.476;19.102;2023-05-29T03:52:41;97555.41;;;8.55;82.85
79028;BME280;68427;48.476;19.102;2023-05-29T03:55:09;97555.03;;;8.58;83.12
79028;BME280;68427;48.476;19.102;2023-05-29T03:57:38;97546.84;;;8.61;82.96
79028;BME280;68427;48.476;19.102;2023-05-29T04:00:05;97556.81;;;8.73;82.41
79028;BME280;68427;48.476;19.102;2023-05-29T04:02:34;97547.91;;;8.82;82.75
79028;BME280;68427;48.476;19.102;2023-05-29T04:05:00;97549.78;;;8.88;83.39
79028;BME280;68427;48.476;19.102;2023-05-29T04:07:25;97548.25;;;8.94;82.95
79028;BME280;68427;48.476;19.102;2023-05-29T04:09:51;97548.94;;;9.02;83.15
79028;BME280;68427;48.476;19.102;2023-05-29T04:12:17;97544.81;;;9.08;82.93
79028;BME280;68427;48.476;19.102;2023-05-29T04:14:42;97545.59;;;9.08;83.16
79028;BME280;68427;48.476;19.102;2023-05-29T04:17:08;97549.44;;;9.13;83.17
79028;BME280;68427;48.476;19.102;2023-05-29T04:19:35;97555.19;;;9.23;83.24
79028;BME280;68427;48.476;19.102;2023-05-29T04:22:01;97561.94;;;9.32;83.18
79028;BME280;68427;48.476;19.102;2023-05-29T04:24:27;97562.44;;;9.42;82.66
79028;BME280;68427;48.476;19.102;2023-05-29T04:26:52;97562.38;;;9.57;82.40
79028;BME280;68427;48.476;19.102;2023-05-29T04:29:18;97564.31;;;9.70;82.36
79028;BME280;68427;48.476;19.102;2023-05-29T04:31:44;97559.22;;;9.83;82.33
79028;BME280;68427;48.476;19.102;2023-05-29T04:34:10;97559.88;;;9.92;82.68
79028;BME280;68427;48.476;19.102;2023-05-29T04:36:37;97556.16;;;10.01;82.54
79028;BME280;68427;48.476;19.102;2023-05-29T04:39:04;97554.03;;;10.18;81.82
79028;BME280;68427;48.476;19.102;2023-05-29T04:41:30;97558.22;;;10.34;80.67
79028;BME280;68427;48.476;19.102;2023-05-29T04:43:56;97561.09;;;10.46;81.11
79028;BME280;68427;48.476;19.102;2023-05-29T04:46:22;97564.38;;;10.54;80.69
79028;BME280;68427;48.476;19.102;2023-05-29T04:48:49;97560.22;;;10.67;81.10
79028;BME280;68427;48.476;19.102;2023-05-29T04:51:18;97560.50;;;10.78;81.36
79028;BME280;68427;48.476;19.102;2023-05-29T04:53:47;97564.78;;;10.93;80.59
79028;BME280;68427;48.476;19.102;2023-05-29T04:56:13;97560.59;;;11.05;80.06
79028;BME280;68427;48.476;19.102;2023-05-29T04:58:39;97564.09;;;11.19;79.70
79028;BME280;68427;48.476;19.102;2023-05-29T05:01:06;97560.69;;;11.32;79.16
79028;BME280;68427;48.476;19.102;2023-05-29T05:03:33;97562.94;;;11.48;78.77
79028;BME280;68427;48.476;19.102;2023-05-29T05:05:59;97563.19;;;11.73;77.58
79028;BME280;68427;48.476;19.102;2023-05-29T05:08:25;97569.50;;;11.99;76.75
79028;BME280;68427;48.476;19.102;2023-05-29T05:10:52;97573.75;;;12.26;76.12
79028;BME280;68427;48.476;19.102;2023-05-29T05:13:18;97567.81;;;12.51;75.71
79028;BME280;68427;48.476;19.102;2023-05-29T05:15:44;97574.06;;;12.77;74.63
79028;BME280;68427;48.476;19.102;2023-05-29T05:18:09;97566.31;;;12.95;74.02
79028;BME280;68427;48.476;19.102;2023-05-29T05:20:35;97566.66;;;13.12;73.04
79028;BME280;68427;48.476;19.102;2023-05-29T05:23:01;97562.94;;;13.33;72.74
79028;BME280;68427;48.476;19.102;2023-05-29T05:25:26;97564.19;;;13.62;72.15
79028;BME280;68427;48.476;19.102;2023-05-29T05:27:53;97562.13;;;13.96;71.07
79028;BME280;68427;48.476;19.102;2023-05-29T05:30:19;97563.34;;;14.18;70.72
79028;BME280;68427;48.476;19.102;2023-05-29T05:32:45;97563.03;;;14.52;67.29
79028;BME280;68427;48.476;19.102;2023-05-29T05:35:11;97556.13;;;14.76;68.59
79028;BME280;68427;48.476;19.102;2023-05-29T05:37:37;97556.81;;;15.20;67.31
79028;BME280;68427;48.476;19.102;2023-05-29T05:40:03;97562.72;;;15.64;64.99
79028;BME280;68427;48.476;19.102;2023-05-29T05:42:30;97565.38;;;16.06;63.40
79028;BME280;68427;48.476;19.102;2023-05-29T05:44:57;97565.88;;;16.38;61.61
79028;BME280;68427;48.476;19.102;2023-05-29T05:47:22;97557.66;;;16.75;61.23
79028;BME280;68427;48.476;19.102;2023-05-29T05:49:48;97561.88;;;17.11;61.70
79028;BME280;68427;48.476;19.102;2023-05-29T05:52:16;97554.97;;;17.39;58.40
79028;BME280;68427;48.476;19.102;2023-05-29T05:54:42;97558.59;;;17.78;57.51
79028;BME280;68427;48.476;19.102;2023-05-29T05:57:08;97562.25;;;18.06;55.52
79028;BME280;68427;48.476;19.102;2023-05-29T05:59:34;97568.59;;;18.22;54.64
79028;BME280;68427;48.476;19.102;2023-05-29T06:02:01;97570.22;;;18.62;53.79
79028;BME280;68427;48.476;19.102;2023-05-29T06:04:27;97570.28;;;19.06;51.86
79028;BME280;68427;48.476;19.102;2023-05-29T06:06:52;97566.53;;;19.51;50.02
79028;BME280;68427;48.476;19.102;2023-05-29T06:09:18;97565.84;;;19.88;49.11
79028;BME280;68427;48.476;19.102;2023-05-29T06:11:44;97569.38;;;19.98;48.86
79028;BME280;68427;48.476;19.102;2023-05-29T06:14:10;97560.19;;;19.79;49.14
79028;BME280;68427;48.476;19.102;2023-05-29T06:16:36;97558.91;;;20.56;47.58
79028;BME280;68427;48.476;19.102;2023-05-29T06:19:03;97564.16;;;20.99;47.72
79028;BME280;68427;48.476;19.102;2023-05-29T06:21:29;97564.63;;;21.48;46.16
79028;BME280;68427;48.476;19.102;2023-05-29T06:23:55;97560.09;;;21.59;45.94
79028;BME280;68427;48.476;19.102;2023-05-29T06:26:21;97557.50;;;21.95;45.82
79028;BME280;68427;48.476;19.102;2023-05-29T06:28:48;97564.41;;;22.11;43.78
79028;BME280;68427;48.476;19.102;2023-05-29T06:31:13;97570.81;;;22.41;42.76
79028;BME280;68427;48.476;19.102;2023-05-29T06:33:39;97571.38;;;22.33;44.41
79028;BME280;68427;48.476;19.102;2023-05-29T06:36:07;97579.53;;;22.88;42.82
79028;BME280;68427;48.476;19.102;2023-05-29T06:38:33;97577.69;;;22.83;42.39
79028;BME280;68427;48.476;19.102;2023-05-29T06:40:58;97580.84;;;23.05;40.39
79028;BME280;68427;48.476;19.102;2023-05-29T06:43:24;97569.25;;;23.70;40.36
79028;BME280;68427;48.476;19.102;2023-05-29T06:45:50;97568.72;;;23.78;38.38
79028;BME280;68427;48.476;19.102;2023-05-29T06:48:15;97571.19;;;23.59;39.98
79028;BME280;68427;48.476;19.102;2023-05-29T06:50:41;97564.53;;;24.01;39.32
79028;BME280;68427;48.476;19.102;2023-05-29T06:53:08;97569.50;;;24.42;39.24
79028;BME280;68427;48.476;19.102;2023-05-29T06:55:34;97574.19;;;24.85;37.77
79028;BME280;68427;48.476;19.102;2023-05-29T06:58:00;97573.34;;;25.32;36.69
79028;BME280;68427;48.476;19.102;2023-05-29T07:00:25;97571.06;;;25.63;35.74
79028;BME280;68427;48.476;19.102;2023-05-29T07:02:51;97575.84;;;25.85;34.72
79028;BME280;68427;48.476;19.102;2023-05-29T07:05:17;97576.28;;;25.93;35.36
79028;BME280;68427;48.476;19.102;2023-05-29T07:07:42;97577.88;;;26.59;34.98
79028;BME280;68427;48.476;19.102;2023-05-29T07:10:10;97574.41;;;26.59;34.84
79028;BME280;68427;48.476;19.102;2023-05-29T07:12:36;97573.22;;;27.20;32.95
79028;BME280;68427;48.476;19.102;2023-05-29T07:15:01;97566.28;;;27.92;31.31
79028;BME280;68427;48.476;19.102;2023-05-29T07:17:27;97564.78;;;28.08;32.01
79028;BME280;68427;48.476;19.102;2023-05-29T07:19:53;97561.34;;;28.16;31.67
79028;BME280;68427;48.476;19.102;2023-05-29T07:22:19;97555.25;;;28.56;31.68
79028;BME280;68427;48.476;19.102;2023-05-29T07:24:45;97561.34;;;29.36;31.16
79028;BME280;68427;48.476;19.102;2023-05-29T07:27:12;97564.25;;;29.83;30.67
79028;BME280;68427;48.476;19.102;2023-05-29T07:29:38;97558.19;;;29.51;30.86
79028;BME280;68427;48.476;19.102;2023-05-29T07:32:04;97553.91;;;29.94;29.54
79028;BME280;68427;48.476;19.102;2023-05-29T07:34:30;97565.06;;;29.75;29.78
79028;BME280;68427;48.476;19.102;2023-05-29T07:36:57;97557.13;;;29.87;29.70
79028;BME280;68427;48.476;19.102;2023-05-29T07:39:23;97562.16;;;30.71;29.31
79028;BME280;68427;48.476;19.102;2023-05-29T07:41:49;97554.53;;;30.08;30.20
79028;BME280;68427;48.476;19.102;2023-05-29T07:44:17;97552.50;;;30.61;28.12
79028;BME280;68427;48.476;19.102;2023-05-29T07:46:42;97546.56;;;30.85;29.83
79028;BME280;68427;48.476;19.102;2023-05-29T07:49:08;97558.00;;;31.12;27.91
79028;BME280;68427;48.476;19.102;2023-05-29T07:51:33;97555.09;;;31.47;27.26
79028;BME280;68427;48.476;19.102;2023-05-29T07:53:59;97559.19;;;31.74;27.07
79028;BME280;68427;48.476;19.102;2023-05-29T07:56:25;97553.19;;;32.47;26.50
79028;BME280;68427;48.476;19.102;2023-05-29T07:58:51;97550.88;;;32.70;25.73
79028;BME280;68427;48.476;19.102;2023-05-29T08:01:20;97549.06;;;32.86;25.79
79028;BME280;68427;48.476;19.102;2023-05-29T08:03:46;97541.28;;;33.62;24.70
79028;BME280;68427;48.476;19.102;2023-05-29T08:06:12;97549.41;;;33.22;25.85
79028;BME280;68427;48.476;19.102;2023-05-29T08:08:38;97541.16;;;32.93;25.08
79028;BME280;68427;48.476;19.102;2023-05-29T08:11:04;97554.28;;;33.69;25.96
79028;BME280;68427;48.476;19.102;2023-05-29T08:13:30;97548.38;;;34.07;24.91
79028;BME280;68427;48.476;19.102;2023-05-29T08:15:56;97541.41;;;33.53;22.72
79028;BME280;68427;48.476;19.102;2023-05-29T08:18:25;97539.03;;;33.11;24.36
79028;BME280;68427;48.476;19.102;2023-05-29T08:20:51;97538.91;;;33.08;25.62
79028;BME280;68427;48.476;19.102;2023-05-29T08:23:17;97536.41;;;33.15;24.39
79028;BME280;68427;48.476;19.102;2023-05-29T08:25:43;97536.97;;;33.73;23.80
79028;BME280;68427;48.476;19.102;2023-05-29T08:28:08;97530.22;;;34.11;22.47
79028;BME280;68427;48.476;19.102;2023-05-29T08:30:34;97541.81;;;34.56;21.55
79028;BME280;68427;48.476;19.102;2023-05-29T08:33:00;97536.53;;;35.11;21.07
79028;BME280;68427;48.476;19.102;2023-05-29T08:35:27;97540.59;;;35.36;20.81
79028;BME280;68427;48.476;19.102;2023-05-29T08:37:53;97541.66;;;35.67;21.17
79028;BME280;68427;48.476;19.102;2023-05-29T08:40:18;97539.22;;;36.24;20.66
79028;BME280;68427;48.476;19.102;2023-05-29T08:42:47;97540.13;;;36.31;19.69
79028;BME280;68427;48.476;19.102;2023-05-29T08:45:13;97528.53;;;36.38;20.13
79028;BME280;68427;48.476;19.102;2023-05-29T08:47:40;97531.28;;;37.41;18.87
79028;BME280;68427;48.476;19.102;2023-05-29T08:50:07;97535.50;;;37.65;17.41
79028;BME280;68427;48.476;19.102;2023-05-29T08:52:35;97530.59;;;38.15;18.39
79028;BME280;68427;48.476;19.102;2023-05-29T08:55:04;97531.78;;;38.18;17.75
79028;BME280;68427;48.476;19.102;2023-05-29T08:57:30;97528.88;;;38.41;17.67
79028;BME280;68427;48.476;19.102;2023-05-29T08:59:57;97524.50;;;37.95;17.05
79028;BME280;68427;48.476;19.102;2023-05-29T09:02:23;97525.84;;;38.09;17.01
79028;BME280;68427;48.476;19.102;2023-05-29T09:04:49;97520.34;;;37.71;16.47
79028;BME280;68427;48.476;19.102;2023-05-29T09:07:18;97520.44;;;37.82;16.25
79028;BME280;68427;48.476;19.102;2023-05-29T09:09:46;97517.44;;;38.32;15.19
79028;BME280;68427;48.476;19.102;2023-05-29T09:12:12;97513.50;;;37.92;14.90
79028;BME280;68427;48.476;19.102;2023-05-29T09:14:39;97520.25;;;38.39;12.88
79028;BME280;68427;48.476;19.102;2023-05-29T09:17:06;97523.25;;;38.26;15.45
79028;BME280;68427;48.476;19.102;2023-05-29T09:19:34;97517.78;;;38.26;15.58
79028;BME280;68427;48.476;19.102;2023-05-29T09:22:01;97504.91;;;37.52;15.57
79028;BME280;68427;48.476;19.102;2023-05-29T09:24:27;97507.44;;;37.72;16.01
79028;BME280;68427;48.476;19.102;2023-05-29T09:26:55;97510.44;;;37.97;15.87
79028;BME280;68427;48.476;19.102;2023-05-29T09:29:22;97509.97;;;38.25;15.93
79028;BME280;68427;48.476;19.102;2023-05-29T09:31:47;97495.75;;;38.57;15.49
79028;BME280;68427;48.476;19.102;2023-05-29T09:34:13;97513.16;;;38.82;16.83
79028;BME280;68427;48.476;19.102;2023-05-29T09:36:39;97507.34;;;38.39;15.75
79028;BME280;68427;48.476;19.102;2023-05-29T09:39:05;97502.13;;;38.72;14.90
79028;BME280;68427;48.476;19.102;2023-05-29T09:41:34;97500.59;;;38.30;15.56
79028;BME280;68427;48.476;19.102;2023-05-29T09:44:02;97508.63;;;39.04;16.16
79028;BME280;68427;48.476;19.102;2023-05-29T09:46:29;97501.06;;;38.87;15.36
79028;BME280;68427;48.476;19.102;2023-05-29T09:49:01;97500.94;;;38.69;15.20
79028;BME280;68427;48.476;19.102;2023-05-29T09:51:28;97499.03;;;38.25;15.46
79028;BME280;68427;48.476;19.102;2023-05-29T09:53:55;97487.94;;;38.55;13.78
79028;BME280;68427;48.476;19.102;2023-05-29T09:56:26;97484.72;;;38.01;13.76
79028;BME280;68427;48.476;19.102;2023-05-29T09:58:56;97490.34;;;38.19;15.69
79028;BME280;68427;48.476;19.102;2023-05-29T10:01:23;97496.91;;;38.52;15.02
79028;BME280;68427;48.476;19.102;2023-05-29T10:03:49;97488.75;;;38.15;16.87
79028;BME280;68427;48.476;19.102;2023-05-29T10:06:18;97491.03;;;39.09;14.60
79028;BME280;68427;48.476;19.102;2023-05-29T10:08:46;97487.53;;;38.53;17.73
79028;BME280;68427;48.476;19.102;2023-05-29T10:11:18;97495.31;;;39.10;15.11
79028;BME280;68427;48.476;19.102;2023-05-29T10:13:50;97494.97;;;39.11;14.37
79028;BME280;68427;48.476;19.102;2023-05-29T10:16:19;97481.72;;;38.58;15.79
79028;BME280;68427;48.476;19.102;2023-05-29T10:18:50;97473.59;;;38.24;16.78
79028;BME280;68427;48.476;19.102;2023-05-29T10:21:21;97479.78;;;38.66;15.12
79028;BME280;68427;48.476;19.102;2023-05-29T10:23:48;97479.00;;;37.46;16.52
79028;BME280;68427;48.476;19.102;2023-05-29T10:26:18;97471.53;;;37.09;16.52
79028;BME280;68427;48.476;19.102;2023-05-29T10:28:54;97473.44;;;37.69;14.92
79028;BME280;68427;48.476;19.102;2023-05-29T10:31:26;97475.34;;;36.74;16.29
79028;BME280;68427;48.476;19.102;2023-05-29T10:34:07;97472.22;;;36.49;17.34
79028;BME280;68427;48.476;19.102;2023-05-29T10:36:39;97473.22;;;36.64;17.44
79028;BME280;68427;48.476;19.102;2023-05-29T10:39:07;97473.84;;;35.85;18.04
79028;BME280;68427;48.476;19.102;2023-05-29T10:41:34;97472.28;;;36.07;18.56
79028;BME280;68427;48.476;19.102;2023-05-29T10:44:37;97475.09;;;35.29;18.69
79028;BME280;68427;48.476;19.102;2023-05-29T10:47:07;97478.22;;;35.31;18.66
79028;BME280;68427;48.476;19.102;2023-05-29T10:49:35;97471.97;;;35.31;16.29
79028;BME280;68427;48.476;19.102;2023-05-29T10:52:03;97472.66;;;34.57;16.34
79028;BME280;68427;48.476;19.102;2023-05-29T10:54:40;97473.38;;;34.38;18.27
79028;BME280;68427;48.476;19.102;2023-05-29T10:57:07;97471.50;;;33.78;20.12
79028;BME280;68427;48.476;19.102;2023-05-29T10:59:36;97481.06;;;33.60;20.35
79028;BME280;68427;48.476;19.102;2023-05-29T11:02:03;97471.13;;;33.80;21.06
79028;BME280;68427;48.476;19.102;2023-05-29T11:04:31;97467.81;;;33.87;19.74
79028;BME280;68427;48.476;19.102;2023-05-29T11:06:59;97465.66;;;33.64;19.23
79028;BME280;68427;48.476;19.102;2023-05-29T11:09:30;97468.78;;;33.78;21.61
79028;BME280;68427;48.476;19.102;2023-05-29T11:12:16;97461.34;;;33.91;20.23
79028;BME280;68427;48.476;19.102;2023-05-29T11:15:03;97462.94;;;34.40;20.46
79028;BME280;68427;48.476;19.102;2023-05-29T11:17:32;97462.91;;;34.56;20.63
79028;BME280;68427;48.476;19.102;2023-05-29T11:20:01;97467.28;;;34.92;18.59
79028;BME280;68427;48.476;19.102;2023-05-29T11:22:41;97459.25;;;34.64;19.66
79028;BME280;68427;48.476;19.102;2023-05-29T11:25:13;97447.59;;;34.99;18.95
79028;BME280;68427;48.476;19.102;2023-05-29T11:27:40;97449.41;;;35.11;19.19
79028;BME280;68427;48.476;19.102;2023-05-29T11:30:06;97445.41;;;34.89;17.03
79028;BME280;68427;48.476;19.102;2023-05-29T11:32:34;97446.59;;;34.56;17.36
79028;BME280;68427;48.476;19.102;2023-05-29T11:35:06;97447.84;;;34.58;18.38
79028;BME280;68427;48.476;19.102;2023-05-29T11:37:34;97446.56;;;34.88;18.02
79028;BME280;68427;48.476;19.102;2023-05-29T11:40:03;97450.81;;;34.53;16.75
79028;BME280;68427;48.476;19.102;2023-05-29T11:42:31;97446.44;;;34.65;17.50
79028;BME280;68427;48.476;19.102;2023-05-29T11:45:09;97449.38;;;34.75;18.22
79028;BME280;68427;48.476;19.102;2023-05-29T11:47:50;97439.25;;;34.56;19.24
79028;BME280;68427;48.476;19.102;2023-05-29T11:50:20;97435.03;;;34.43;18.04
79028;BME280;68427;48.476;19.102;2023-05-29T11:52:48;97429.97;;;33.66;19.93
79028;BME280;68427;48.476;19.102;2023-05-29T11:55:13;97429.50;;;33.20;18.60
79028;BME280;68427;48.476;19.102;2023-05-29T11:57:39;97423.38;;;32.70;19.47
79028;BME280;68427;48.476;19.102;2023-05-29T12:00:06;97430.28;;;32.18;19.82
79028;BME280;68427;48.476;19.102;2023-05-29T12:02:36;97430.28;;;31.85;20.46
79028;BME280;68427;48.476;19.102;2023-05-29T12:05:02;97428.41;;;31.52;21.27
79028;BME280;68427;48.476;19.102;2023-05-29T12:07:28;97413.84;;;31.24;21.29
79028;BME280;68427;48.476;19.102;2023-05-29T12:09:55;97421.53;;;31.55;20.78
79028;BME280;68427;48.476;19.102;2023-05-29T12:12:23;97416.72;;;32.06;19.90
79028;BME280;68427;48.476;19.102;2023-05-29T12:14:50;97421.34;;;32.05;18.84
79028;BME280;68427;48.476;19.102;2023-05-29T12:17:16;97418.53;;;32.26;18.01
79028;BME280;68427;48.476;19.102;2023-05-29T12:19:42;97410.28;;;32.60;20.13
79028;BME280;68427;48.476;19.102;2023-05-29T12:22:07;97403.03;;;32.39;20.89
79028;BME280;68427;48.476;19.102;2023-05-29T12:24:34;97408.59;;;32.18;19.28
79028;BME280;68427;48.476;19.102;2023-05-29T12:27:03;97405.03;;;31.93;20.06
79028;BME280;68427;48.476;19.102;2023-05-29T12:29:30;97407.88;;;31.97;21.26
79028;BME280;68427;48.476;19.102;2023-05-29T12:31:57;97406.06;;;32.38;19.18
79028;BME280;68427;48.476;19.102;2023-05-29T12:34:23;97404.81;;;32.47;19.51
79028;BME280;68427;48.476;19.102;2023-05-29T12:36:49;97401.34;;;32.10;21.57
79028;BME280;68427;48.476;19.102;2023-05-29T12:39:15;97398.63;;;32.10;19.91
79028;BME280;68427;48.476;19.102;2023-05-29T12:41:41;97400.00;;;32.16;21.86
79028;BME280;68427;48.476;19.102;2023-05-29T12:44:08;97401.69;;;32.45;19.32
79028;BME280;68427;48.476;19.102;2023-05-29T12:46:39;97394.22;;;32.42;19.62
79028;BME280;68427;48.476;19.102;2023-05-29T12:49:14;97399.53;;;32.63;22.22
79028;BME280;68427;48.476;19.102;2023-05-29T12:51:41;97386.56;;;32.57;19.50
79028;BME280;68427;48.476;19.102;2023-05-29T12:54:09;97392.50;;;32.75;20.00